This is the latest recevied weather packets stored in our database for station/object W5HKR. If no packets are shown the sender has not sent any weather packets the latest 10 day(s).
| Time | Temp. | Humidity | Pressure | Rain* | Wind** | Luminosity | Snow |
|---|---|---|---|---|---|---|---|
| 1778145203 | 17.22° C | 79% | 986.5 hPa | 0 mm | - | - | - |
| 1778144993 | 17.22° C | 79% | 986.1 hPa | 0 mm | - | - | - |
| 1778144604 | 17.22° C | 79% | 986.5 hPa | 0 mm | - | - | - |
| 1778144303 | 18.33° C | 91% | 990.6 hPa | 0 mm | - | - | - |
| 1778144004 | 17.22° C | 79% | 986.1 hPa | 0 mm | - | - | - |
| 1778144003 | 17.22° C | 79% | 986.1 hPa | 0 mm | - | - | - |
| 1778143914 | 18.33° C | 91% | 990.6 hPa | 0 mm | - | - | - |
| 1778143703 | 18.33° C | 91% | 990.6 hPa | 0 mm | - | - | - |
| 1778143402 | 18.33° C | 91% | 990.6 hPa | 0 mm | - | - | - |
| 1778143104 | 17.22° C | 80% | 986.1 hPa | 0 mm | - | - | - |
| 1778142833 | 18.33° C | 91% | 990.6 hPa | 0 mm | - | - | - |
| 1778142804 | 17.22° C | 79% | 986.1 hPa | 0 mm | - | - | - |
| 1778142502 | 17.22° C | 80% | 986.4 hPa | 0 mm | - | - | - |
| 1778141903 | 18.33° C | 91% | 990.6 hPa | 0 mm | - | - | - |
| 1778141753 | 17.22° C | 80% | 986.1 hPa | 0 mm | - | - | - |
| 1778141603 | 17.78° C | 80% | 985.9 hPa | 0 mm | - | - | - |
| 1778141302 | 17.78° C | 80% | 986 hPa | 0 mm | - | - | - |
| 1778141003 | 18.33° C | 91% | 990.6 hPa | 0 mm | - | - | - |
| 1778140704 | 18.33° C | 91% | 990.6 hPa | 0 mm | - | - | - |
| 1778140673 | 17.78° C | 80% | 986.2 hPa | 0 mm | - | - | - |
| 1778140403 | 18.33° C | 91% | 990.6 hPa | 0 mm | - | - | - |
| 1778140104 | 17.78° C | 80% | 986.2 hPa | 0 mm | - | - | - |
| 1778139802 | 18.33° C | 91% | 990.6 hPa | 0 mm | - | - | - |
| 1778139593 | 17.78° C | 80% | 986.3 hPa | 0 mm | - | - | - |
| 1778139503 | 18.33° C | 91% | 990.6 hPa | 0 mm | - | - | - |
* Rain latest hour (hover to see other rain measurements)
** Current wind speed in m/s (hover to see current wind gust speed)